Time;durP1;ratioP1;P1;durP2;ratioP2;P2;SDS_P1;SDS_P2;PMS_P1;PMS_P2;Temp;Humidity;BMP_temperature;BMP_pressure;BME280_temperature;BME280_humidity;BME280_pressure;Samples;Min_cycle;Max_cycle;Signal;HPM_P1;HPM_P2
2021/01/08 00:01:40;;;;;;;19.57;12.97;;;1.70;99.90;;;-143.91;100.00;62816.50;4945369;28;100028;-64
2021/01/08 00:04:06;;;;;;;19.03;13.17;;;1.60;99.90;;;-143.91;100.00;62816.50;4947316;28;100003;-66
2021/01/08 00:06:33;;;;;;;21.27;13.63;;;2.80;99.90;;;-143.91;100.00;62816.50;4946247;28;100471;-65
2021/01/08 00:09:00;;;;;;;20.37;13.00;;;1.70;99.90;;;-143.91;100.00;62816.50;4948141;28;101208;-66
2021/01/08 00:11:27;;;;;;;20.00;13.40;;;1.60;99.90;;;-143.91;100.00;62816.50;4950447;28;100477;-65
2021/01/08 00:13:54;;;;;;;20.57;13.67;;;1.60;99.90;;;-143.91;100.00;62816.50;4947945;28;100550;-66
2021/01/08 00:16:21;;;;;;;22.00;13.73;;;1.60;99.90;;;-143.91;100.00;62816.50;4946881;28;100732;-64
2021/01/08 00:18:47;;;;;;;20.53;12.50;;;1.70;99.90;;;-143.91;100.00;62816.50;4946585;28;100615;-64
2021/01/08 00:21:14;;;;;;;23.27;12.50;;;1.60;99.90;;;-143.91;100.00;62816.50;4946344;28;100077;-65
2021/01/08 00:23:41;;;;;;;20.17;13.47;;;1.60;99.90;;;-143.91;100.00;62816.50;4946381;28;100087;-65
2021/01/08 00:26:07;;;;;;;21.10;12.97;;;1.70;99.90;;;-143.91;100.00;62816.50;4945825;28;100894;-66
2021/01/08 00:28:34;;;;;;;19.80;13.13;;;1.80;99.90;;;-143.91;100.00;62816.50;4946273;28;100726;-66
2021/01/08 00:31:01;;;;;;;19.43;11.80;;;1.80;99.90;;;-143.91;100.00;62816.50;4946210;28;100116;-64
2021/01/08 00:33:27;;;;;;;19.73;11.80;;;1.70;99.90;;;-143.91;100.00;62816.50;4947248;28;100281;-63
2021/01/08 00:35:54;;;;;;;19.07;12.40;;;1.70;99.90;;;-143.91;100.00;62816.50;4945744;28;100948;-64
2021/01/08 00:38:20;;;;;;;23.80;12.87;;;1.80;99.90;;;-143.91;100.00;62816.50;4946062;28;101134;-65
2021/01/08 00:40:50;;;;;;;18.90;12.00;;;2.40;99.90;;;-143.91;100.00;62816.50;4946177;28;100266;-64
2021/01/08 00:43:16;;;;;;;21.80;13.70;;;1.60;99.90;;;-143.91;100.00;62816.50;4946987;28;100165;-65
2021/01/08 00:45:44;;;;;;;22.57;13.40;;;1.70;99.90;;;-143.91;100.00;62816.50;4945651;28;101612;-65
2021/01/08 00:48:10;;;;;;;21.03;12.57;;;0.50;99.90;;;-143.91;100.00;62816.50;4927327;28;103179;-64
2021/01/08 00:50:37;;;;;;;19.23;12.17;;;1.70;99.90;;;-143.91;100.00;62816.50;4926713;28;100150;-66
2021/01/08 00:53:03;;;;;;;24.83;14.23;;;1.70;99.90;;;-143.91;100.00;62816.50;4945042;28;100693;-66
2021/01/08 00:55:30;;;;;;;25.77;14.20;;;1.60;99.90;;;-143.91;100.00;62816.50;4945991;28;101050;-63
2021/01/08 00:58:04;;;;;;;19.27;13.27;;;1.60;99.90;;;-143.91;100.00;62816.50;4943720;28;101493;-66
2021/01/08 01:00:30;;;;;;;20.10;13.50;;;1.70;99.90;;;-143.91;100.00;62816.50;4945373;28;100373;-66
2021/01/08 01:02:57;;;;;;;21.07;12.33;;;1.50;99.90;;;-143.91;100.00;62816.50;4945876;28;99964;-65
2021/01/08 01:05:24;;;;;;;23.07;13.30;;;1.60;99.90;;;-143.91;100.00;62816.50;4944934;28;101091;-66
2021/01/08 01:07:50;;;;;;;21.33;12.60;;;1.60;99.90;;;-143.91;100.00;62816.50;4946418;28;100452;-65
2021/01/08 01:10:17;;;;;;;20.77;13.43;;;1.60;99.90;;;-143.91;100.00;62816.50;4945758;28;100219;-66
2021/01/08 01:12:43;;;;;;;19.77;12.80;;;1.60;99.90;;;-143.91;100.00;62816.50;4945472;28;100228;-65
2021/01/08 01:15:10;;;;;;;21.43;13.23;;;1.40;99.90;;;-143.91;100.00;62816.50;4944872;28;100707;-63
2021/01/08 01:17:41;;;;;;;21.40;13.27;;;1.50;99.90;;;-143.91;100.00;62816.50;4944917;28;101120;-65
2021/01/08 01:20:10;;;;;;;22.93;13.70;;;1.70;99.90;;;-143.91;100.00;62816.50;4944795;28;100268;-67
2021/01/08 01:22:37;;;;;;;18.37;13.03;;;1.60;99.90;;;-143.91;100.00;62816.50;4945477;28;100152;-65
2021/01/08 01:25:04;;;;;;;18.30;12.87;;;1.40;99.90;;;-143.91;100.00;62816.50;4945091;28;101882;-66
2021/01/08 01:27:31;;;;;;;20.00;12.43;;;1.40;99.90;;;-143.91;100.00;62816.50;4945311;28;100306;-66
2021/01/08 01:29:57;;;;;;;19.90;12.80;;;2.50;99.90;;;-143.91;100.00;62816.50;4944892;28;100195;-66
2021/01/08 01:32:23;;;;;;;20.03;12.67;;;1.50;99.90;;;-143.91;100.00;62816.50;4946133;28;100258;-65
2021/01/08 01:34:50;;;;;;;18.70;13.03;;;1.40;99.90;;;-143.91;100.00;62816.50;4944887;28;101775;-66
2021/01/08 01:37:17;;;;;;;23.30;13.93;;;1.50;99.90;;;-143.91;100.00;62816.50;4944814;28;101257;-67
2021/01/08 01:39:44;;;;;;;20.53;13.23;;;1.50;99.90;;;-143.91;100.00;62816.50;4944862;28;100112;-66
2021/01/08 01:42:11;;;;;;;21.30;13.80;;;0.70;99.90;;;-143.91;100.00;62816.50;4945148;28;100077;-65
2021/01/08 01:44:37;;;;;;;19.97;13.10;;;2.70;99.90;;;-143.91;100.00;62816.50;4944993;28;101920;-65
2021/01/08 01:47:04;;;;;;;20.83;13.10;;;1.40;99.90;;;-143.91;100.00;62816.50;4944465;28;101523;-65
2021/01/08 01:49:31;;;;;;;20.17;12.80;;;1.40;99.90;;;-143.91;100.00;62816.50;4945557;28;99941;-65
2021/01/08 01:52:01;;;;;;;20.60;13.27;;;1.40;99.90;;;-143.91;100.00;62816.50;4944567;28;100063;-65
2021/01/08 01:54:28;;;;;;;21.73;13.80;;;1.40;99.90;;;-143.91;100.00;62816.50;4944971;28;100720;-64
2021/01/08 01:56:56;;;;;;;19.83;12.77;;;1.30;99.90;;;-143.91;100.00;62816.50;4945645;28;100845;-66
2021/01/08 01:59:23;;;;;;;17.00;12.67;;;1.30;99.90;;;-143.91;100.00;62816.50;4944983;28;100162;-65
2021/01/08 02:01:53;;;;;;;20.20;12.70;;;1.40;99.90;;;-143.91;100.00;62816.50;4932860;28;100334;-64
2021/01/08 02:04:21;;;;;;;18.47;11.77;;;1.60;99.90;;;-143.91;100.00;62816.50;4944658;28;100574;-65
2021/01/08 02:06:50;;;;;;;23.03;14.20;;;1.50;99.90;;;-143.91;100.00;62816.50;4944810;28;100541;-66
2021/01/08 02:09:20;;;;;;;20.67;13.37;;;1.50;99.90;;;-143.91;100.00;62816.50;4945741;28;100415;-66
2021/01/08 02:11:52;;;;;;;20.07;13.10;;;1.50;99.90;;;-143.91;100.00;62816.50;4944845;28;100318;-65
2021/01/08 02:14:24;;;;;;;20.77;13.90;;;1.50;99.90;;;-143.91;100.00;62816.50;4944873;28;100921;-64
2021/01/08 02:16:52;;;;;;;18.37;12.00;;;1.60;99.90;;;-143.91;100.00;62816.50;4944242;28;101145;-64
2021/01/08 02:19:25;;;;;;;19.93;13.13;;;1.50;99.90;;;-143.91;100.00;62816.50;4945090;28;100542;-65
2021/01/08 02:21:57;;;;;;;21.40;13.40;;;1.60;99.90;;;-143.91;100.00;62816.50;4944495;28;100270;-66
2021/01/08 02:24:30;;;;;;;19.37;12.10;;;1.50;99.90;;;-143.91;100.00;62816.50;4944420;28;100691;-66
2021/01/08 02:26:58;;;;;;;22.13;13.37;;;1.50;99.90;;;-143.91;100.00;62816.50;4944637;28;100721;-64
2021/01/08 02:29:26;;;;;;;20.03;12.63;;;1.50;99.90;;;-143.91;100.00;62816.50;4944203;28;100380;-66
2021/01/08 02:31:54;;;;;;;19.03;12.20;;;1.60;99.90;;;-143.91;100.00;62816.50;4944500;28;100364;-65
2021/01/08 02:34:22;;;;;;;22.17;13.13;;;1.50;99.90;;;-143.91;100.00;62816.50;4944242;28;101058;-64
2021/01/08 02:36:50;;;;;;;17.63;13.00;;;0.90;99.90;;;-143.91;100.00;62816.50;4943612;28;101647;-66
2021/01/08 02:39:16;;;;;;;20.40;13.07;;;1.50;99.90;;;-143.91;100.00;62816.50;4944797;28;100104;-65
2021/01/08 02:41:46;;;;;;;20.10;12.40;;;1.60;99.90;;;-143.91;100.00;62816.50;4943936;28;100170;-65
2021/01/08 02:44:15;;;;;;;18.00;12.67;;;1.50;99.90;;;-143.91;100.00;62816.50;4944177;28;100924;-65
2021/01/08 02:46:42;;;;;;;18.70;11.47;;;1.60;99.90;;;-143.91;100.00;62816.50;4944313;28;100579;-64
2021/01/08 02:49:08;;;;;;;19.97;11.97;;;1.60;99.90;;;-143.91;100.00;62816.50;4944253;28;100359;-64
2021/01/08 02:51:35;;;;;;;18.03;12.03;;;1.60;99.90;;;-143.91;100.00;62816.50;4944797;28;100090;-66
2021/01/08 02:54:03;;;;;;;18.80;12.27;;;0.40;99.90;;;-143.91;100.00;62816.50;4943494;28;101858;-66
2021/01/08 02:56:35;;;;;;;19.30;13.13;;;2.00;99.90;;;-143.91;100.00;62816.50;4943982;28;100045;-66
2021/01/08 02:59:03;;;;;;;18.30;11.60;;;2.50;99.90;;;-143.91;100.00;62816.50;4943896;28;100098;-68
2021/01/08 03:01:32;;;;;;;19.07;12.00;;;1.80;99.90;;;-143.91;100.00;62816.50;4943846;28;99987;-65
2021/01/08 03:04:00;;;;;;;19.07;12.87;;;1.50;99.90;;;-143.91;100.00;62816.50;4943786;28;102294;-68
2021/01/08 03:06:28;;;;;;;19.57;12.37;;;1.50;99.90;;;-143.91;100.00;62816.50;4943257;28;101192;-65
2021/01/08 03:08:56;;;;;;;15.83;11.20;;;1.60;99.90;;;-143.91;100.00;62816.50;4943843;28;100583;-65
2021/01/08 03:11:23;;;;;;;20.13;11.97;;;1.60;99.90;;;-143.91;100.00;62816.50;4944230;28;100521;-66
2021/01/08 03:13:51;;;;;;;18.70;11.97;;;1.60;99.90;;;-143.91;100.00;62816.50;4943653;28;100757;-66
2021/01/08 03:16:19;;;;;;;16.37;11.63;;;2.60;99.90;;;-143.91;100.00;62816.50;4944533;28;101194;-67
2021/01/08 03:18:46;;;;;;;17.37;11.83;;;1.60;99.90;;;-143.91;100.00;62816.50;4947048;28;100219;-65
2021/01/08 03:21:13;;;;;;;18.73;11.83;;;1.40;99.90;;;-143.91;100.00;62816.50;4947220;28;100316;-66
2021/01/08 03:23:40;;;;;;;18.20;11.93;;;1.40;99.90;;;-143.91;100.00;62816.50;4946987;28;100977;-65
2021/01/08 03:26:06;;;;;;;16.83;11.30;;;1.70;99.90;;;-143.91;100.00;62816.50;4946676;28;101090;-65
2021/01/08 03:28:33;;;;;;;18.63;12.10;;;1.60;99.90;;;-143.91;100.00;62816.50;4953576;28;100097;-65
2021/01/08 03:31:00;;;;;;;17.23;11.90;;;1.50;99.90;;;-143.91;100.00;62816.50;4947171;28;100333;-65
2021/01/08 03:33:26;;;;;;;18.43;11.83;;;1.60;99.90;;;-143.91;100.00;62816.50;4946892;28;101880;-64
2021/01/08 03:35:54;;;;;;;16.40;11.07;;;1.60;99.90;;;-143.91;100.00;62816.50;4946954;28;100194;-65
2021/01/08 03:38:20;;;;;;;19.23;12.60;;;1.60;99.90;;;-143.91;100.00;62816.50;4947510;28;100167;-66
2021/01/08 03:40:47;;;;;;;17.20;12.20;;;1.50;99.90;;;-143.91;100.00;62816.50;4947521;28;100073;-66
2021/01/08 03:43:13;;;;;;;19.53;11.90;;;1.70;99.90;;;-143.91;100.00;62816.50;4946810;28;101927;-66
2021/01/08 03:45:40;;;;;;;16.77;12.03;;;1.60;99.90;;;-143.91;100.00;62816.50;4949191;28;101756;-66
2021/01/08 03:48:14;;;;;;;19.67;12.77;;;1.50;99.90;;;-143.91;100.00;62816.50;4949902;28;100594;-66
2021/01/08 03:50:40;;;;;;;19.33;12.63;;;1.50;99.90;;;-143.91;100.00;62816.50;4939909;28;100397;-65
2021/01/08 03:53:08;;;;;;;17.93;12.90;;;0.30;99.90;;;-143.91;100.00;62816.50;4946863;28;100620;-66
2021/01/08 03:55:34;;;;;;;19.80;11.77;;;1.60;99.90;;;-143.91;100.00;62816.50;4946391;28;100903;-66
2021/01/08 03:58:01;;;;;;;19.80;13.00;;;1.40;99.90;;;-143.91;100.00;62816.50;4947100;28;100095;-67
2021/01/08 04:00:27;;;;;;;20.67;12.83;;;1.50;99.90;;;-143.91;100.00;62816.50;4946302;28;100382;-65
2021/01/08 04:02:54;;;;;;;18.33;12.70;;;1.50;99.90;;;-143.91;100.00;62816.50;4946322;28;101474;-66
2021/01/08 04:05:21;;;;;;;18.43;11.90;;;1.40;99.90;;;-143.91;100.00;62816.50;4945673;28;101175;-67
2021/01/08 04:07:47;;;;;;;20.80;12.73;;;1.50;99.90;;;-143.91;100.00;62816.50;4946171;28;100281;-67
2021/01/08 04:10:15;;;;;;;18.13;12.03;;;1.50;99.90;;;-143.91;100.00;62816.50;4945874;28;100012;-65
2021/01/08 04:12:41;;;;;;;18.50;12.60;;;1.50;99.90;;;-143.91;100.00;62816.50;4946048;28;101392;-65
2021/01/08 04:15:09;;;;;;;18.73;13.10;;;2.80;99.90;;;-143.91;100.00;62816.50;4945766;28;100250;-65
2021/01/08 04:17:35;;;;;;;21.33;12.87;;;1.60;99.90;;;-143.91;100.00;62816.50;4946284;28;100497;-64
2021/01/08 04:20:02;;;;;;;21.17;13.27;;;2.50;99.90;;;-143.91;100.00;62816.50;4946539;28;100430;-64
2021/01/08 04:22:28;;;;;;;20.40;12.67;;;1.50;99.90;;;-143.91;100.00;62816.50;4945577;28;101075;-64
2021/01/08 04:24:55;;;;;;;17.53;12.20;;;1.70;99.90;;;-143.91;100.00;62816.50;4946645;28;100496;-66
2021/01/08 04:27:22;;;;;;;22.00;13.37;;;1.60;99.90;;;-143.91;100.00;62816.50;4945431;28;100177;-67
2021/01/08 04:29:49;;;;;;;18.20;14.03;;;1.70;99.90;;;-143.91;100.00;62816.50;4946057;28;100427;-66
2021/01/08 04:32:15;;;;;;;20.03;12.80;;;1.60;99.90;;;-143.91;100.00;62816.50;4926955;28;103425;-65
2021/01/08 04:34:42;;;;;;;18.33;12.60;;;2.40;99.90;;;-143.91;100.00;62816.50;4945960;28;102206;-66
2021/01/08 04:37:08;;;;;;;18.70;12.43;;;1.70;99.90;;;-143.91;100.00;62816.50;4946294;28;100324;-65
2021/01/08 04:39:35;;;;;;;16.90;12.67;;;1.70;99.90;;;-143.91;100.00;62816.50;4927533;28;100378;-65
2021/01/08 04:42:02;;;;;;;21.60;12.80;;;2.00;99.90;;;-143.91;100.00;62816.50;4945367;28;101091;-64
2021/01/08 04:44:31;;;;;;;17.67;12.47;;;1.70;99.90;;;-143.91;100.00;62816.50;4945985;28;101622;-66
2021/01/08 04:46:58;;;;;;;15.63;11.53;;;1.60;99.90;;;-143.91;100.00;62816.50;4940451;28;100554;-66
2021/01/08 04:49:25;;;;;;;17.07;12.93;;;1.60;99.90;;;-143.91;100.00;62816.50;4947006;28;100786;-66
2021/01/08 04:51:52;;;;;;;18.13;13.33;;;2.80;99.90;;;-143.91;100.00;62816.50;4945954;28;100386;-66
2021/01/08 04:54:18;;;;;;;17.47;13.13;;;1.60;99.90;;;-143.91;100.00;62816.50;4945655;28;101689;-65
2021/01/08 04:56:48;;;;;;;19.63;12.90;;;1.50;99.90;;;-143.91;100.00;62816.50;4945613;28;99987;-65
2021/01/08 04:59:15;;;;;;;19.83;14.20;;;1.40;99.90;;;-143.91;100.00;62816.50;4940248;28;100152;-63
2021/01/08 05:01:42;;;;;;;18.97;13.27;;;1.60;99.90;;;-143.91;100.00;62816.50;4943409;28;102052;-66
2021/01/08 05:04:10;;;;;;;17.50;12.93;;;1.50;99.90;;;-143.91;100.00;62816.50;4945625;28;100565;-65
2021/01/08 05:06:37;;;;;;;18.33;13.13;;;1.40;99.90;;;-143.91;100.00;62816.50;4945586;28;100472;-65
2021/01/08 05:09:04;;;;;;;20.10;13.47;;;1.50;99.90;;;-143.91;100.00;62816.50;4945988;28;100589;-65
2021/01/08 05:11:31;;;;;;;21.77;13.33;;;1.40;99.90;;;-143.91;100.00;62816.50;4944716;28;101372;-65
2021/01/08 05:14:00;;;;;;;17.53;12.67;;;1.50;99.90;;;-143.91;100.00;62816.50;4946330;28;100573;-65
2021/01/08 05:16:29;;;;;;;18.90;13.40;;;1.40;99.90;;;-143.91;100.00;62816.50;4945501;28;100367;-64
2021/01/08 05:18:58;;;;;;;19.83;12.53;;;2.60;99.90;;;-143.91;100.00;62816.50;4945802;28;100180;-65
2021/01/08 05:21:27;;;;;;;19.63;13.50;;;1.30;99.90;;;-143.91;100.00;62816.50;4945421;28;100689;-64
2021/01/08 05:23:55;;;;;;;19.37;12.83;;;1.80;99.90;;;-143.91;100.00;62816.50;4945200;28;100415;-65
2021/01/08 05:26:23;;;;;;;18.57;13.97;;;0.40;99.90;;;-143.91;100.00;62816.50;4935501;28;100030;-66
2021/01/08 05:28:51;;;;;;;19.87;14.00;;;2.10;99.90;;;-143.91;100.00;62816.50;4945841;28;100078;-64
2021/01/08 05:31:19;;;;;;;18.77;13.73;;;1.40;99.90;;;-143.91;100.00;62816.50;4944826;28;101057;-64
2021/01/08 05:33:48;;;;;;;21.50;14.17;;;1.30;99.90;;;-143.91;100.00;62816.50;4945669;28;100201;-66
2021/01/08 05:36:17;;;;;;;32.90;16.40;;;1.30;99.90;;;-143.91;100.00;62816.50;4944990;28;100011;-64
2021/01/08 05:38:46;;;;;;;21.87;13.90;;;1.30;99.90;;;-143.91;100.00;62816.50;4944701;28;100301;-65
2021/01/08 05:41:13;;;;;;;21.07;14.27;;;1.20;99.90;;;-143.91;100.00;62816.50;4944889;28;100015;-64
2021/01/08 05:43:40;;;;;;;21.47;13.83;;;1.30;99.90;;;-143.91;100.00;62816.50;4945247;28;100240;-64
2021/01/08 05:46:12;;;;;;;19.17;13.13;;;1.40;99.90;;;-143.91;100.00;62816.50;4944371;28;100331;-66
2021/01/08 05:48:43;;;;;;;19.63;13.23;;;1.30;99.90;;;-143.91;100.00;62816.50;4944986;28;100272;-63
2021/01/08 05:51:14;;;;;;;23.13;14.77;;;1.50;99.90;;;-143.91;100.00;62816.50;4945053;28;100833;-66
2021/01/08 05:53:42;;;;;;;21.13;14.57;;;1.70;99.90;;;-143.91;100.00;62816.50;4944914;28;101137;-65
2021/01/08 05:56:15;;;;;;;20.67;14.57;;;1.30;99.90;;;-143.91;100.00;62816.50;4945090;28;100422;-66
2021/01/08 05:58:43;;;;;;;22.47;16.53;;;1.30;99.90;;;-143.91;100.00;62816.50;4945041;28;100038;-66
2021/01/08 06:01:09;;;;;;;21.40;14.50;;;1.40;99.90;;;-143.91;100.00;62816.50;4944857;28;102313;-69
2021/01/08 06:03:39;;;;;;;19.50;14.67;;;1.30;99.90;;;-143.91;100.00;62816.50;4945474;28;100617;-69
2021/01/08 06:06:06;;;;;;;23.10;16.20;;;1.10;99.90;;;-143.91;100.00;62816.50;4945798;28;100081;-68
2021/01/08 06:08:38;;;;;;;22.50;15.83;;;1.00;99.90;;;-143.91;100.00;62816.50;4945203;28;100174;-68
2021/01/08 06:11:07;;;;;;;22.67;15.07;;;1.10;99.90;;;-143.91;100.00;62816.50;4943782;28;101097;-67
2021/01/08 06:13:35;;;;;;;23.53;15.60;;;1.30;99.90;;;-143.91;100.00;62816.50;4944379;28;100876;-66
2021/01/08 06:16:04;;;;;;;22.27;15.80;;;1.20;99.90;;;-143.91;100.00;62816.50;4944553;28;100252;-66
2021/01/08 06:18:37;;;;;;;23.07;15.00;;;1.20;99.90;;;-143.91;100.00;62816.50;4944570;28;100187;-67
2021/01/08 06:21:06;;;;;;;174.07;28.37;;;1.20;99.90;;;-143.91;100.00;62816.50;4944662;28;100709;-64
2021/01/08 06:23:44;;;;;;;27.60;15.20;;;1.20;99.90;;;-143.91;100.00;62816.50;4944112;28;100486;-67
2021/01/08 06:26:12;;;;;;;20.97;14.90;;;1.20;99.90;;;-143.91;100.00;62816.50;4944457;28;100053;-67
2021/01/08 06:28:42;;;;;;;23.77;16.77;;;1.20;99.90;;;-143.91;100.00;62816.50;4944976;28;100305;-66
2021/01/08 06:31:31;;;;;;;24.20;15.57;;;1.20;99.90;;;-143.91;100.00;62816.50;4944661;28;101125;-67
2021/01/08 06:33:59;;;;;;;24.20;15.43;;;2.00;99.90;;;-143.91;100.00;62816.50;4944211;28;100092;-66
2021/01/08 06:36:27;;;;;;;22.53;15.50;;;1.20;99.90;;;-143.91;100.00;62816.50;4943799;28;100306;-66
2021/01/08 06:38:57;;;;;;;23.83;16.13;;;2.30;99.90;;;-143.91;100.00;62816.50;4944821;28;100044;-65
2021/01/08 06:41:25;;;;;;;25.57;15.53;;;1.40;99.90;;;-143.91;100.00;62816.50;4944090;28;100874;-67
2021/01/08 06:43:57;;;;;;;25.30;17.17;;;1.30;99.90;;;-143.91;100.00;62816.50;4944134;28;101366;-65
2021/01/08 06:46:42;;;;;;;24.30;16.43;;;1.20;99.90;;;-143.91;100.00;62816.50;4944510;28;100114;-65
2021/01/08 06:49:12;;;;;;;26.67;16.97;;;1.20;99.90;;;-143.91;100.00;62816.50;4936032;28;100024;-66
2021/01/08 06:51:41;;;;;;;24.57;16.17;;;1.10;99.90;;;-143.91;100.00;62816.50;4923548;28;102465;-66
2021/01/08 06:54:10;;;;;;;27.30;16.87;;;1.20;99.90;;;-143.91;100.00;62816.50;4925723;28;100408;-66
2021/01/08 06:56:39;;;;;;;25.20;17.47;;;1.20;99.90;;;-143.91;100.00;62816.50;4939321;28;100277;-66
2021/01/08 06:59:08;;;;;;;25.73;17.30;;;1.30;99.90;;;-143.91;100.00;62816.50;4945676;28;100476;-66
2021/01/08 07:01:54;;;;;;;24.53;17.43;;;0.70;99.90;;;-143.91;100.00;62816.50;4944090;28;101646;-67
2021/01/08 07:04:23;;;;;;;26.70;17.13;;;1.10;99.90;;;-143.91;100.00;62816.50;4944512;28;100547;-67
2021/01/08 07:06:51;;;;;;;59.37;20.60;;;1.10;99.90;;;-143.91;100.00;62816.50;4945449;28;100353;-66
2021/01/08 07:09:19;;;;;;;31.43;18.97;;;1.30;99.90;;;-143.91;100.00;62816.50;4945541;28;100092;-67
2021/01/08 07:11:54;;;;;;;29.10;18.10;;;2.30;99.90;;;-143.91;100.00;62816.50;4944628;28;101094;-65
2021/01/08 07:14:23;;;;;;;26.13;16.83;;;1.10;99.90;;;-143.91;100.00;62816.50;4944965;28;101453;-67
2021/01/08 07:16:52;;;;;;;26.80;17.57;;;0.30;99.90;;;-143.91;100.00;62816.50;4948891;28;100269;-67
2021/01/08 07:19:21;;;;;;;29.33;18.97;;;1.20;99.90;;;-143.91;100.00;62816.50;4948834;28;100190;-67
2021/01/08 07:21:51;;;;;;;29.03;19.07;;;1.20;99.90;;;-143.91;100.00;62816.50;4945093;28;101791;-67
2021/01/08 07:24:23;;;;;;;338.57;41.53;;;1.20;99.90;;;-143.91;100.00;62816.50;4944591;28;100130;-68
2021/01/08 07:26:50;;;;;;;28.37;19.00;;;0.50;99.90;;;-143.91;100.00;62816.50;4943995;28;100523;-67
2021/01/08 07:29:26;;;;;;;31.83;19.17;;;1.60;99.90;;;-143.91;100.00;62816.50;4944672;28;100066;-66
2021/01/08 07:31:55;;;;;;;30.77;19.93;;;1.10;99.90;;;-143.91;100.00;62816.50;4944324;28;101213;-66
2021/01/08 07:34:34;;;;;;;28.43;19.00;;;1.10;99.90;;;-143.91;100.00;62816.50;4944698;28;100418;-65
2021/01/08 07:37:01;;;;;;;31.87;18.67;;;1.20;99.90;;;-143.91;100.00;62816.50;4943985;28;100383;-64
2021/01/08 07:39:39;;;;;;;29.57;19.07;;;1.30;99.90;;;-143.91;100.00;62816.50;4944224;28;100339;-67
2021/01/08 07:42:34;;;;;;;29.70;19.33;;;2.50;99.90;;;-143.91;100.00;62816.50;4944053;28;101169;-66
2021/01/08 07:45:02;;;;;;;33.53;19.63;;;1.20;99.90;;;-143.91;100.00;62816.50;4937379;28;100955;-66
2021/01/08 07:47:29;;;;;;;29.40;19.87;;;1.20;99.90;;;-143.91;100.00;62816.50;4944806;28;100303;-66
2021/01/08 07:50:13;;;;;;;28.57;18.70;;;1.60;99.90;;;-143.91;100.00;62816.50;4944776;28;100366;-66
2021/01/08 07:52:42;;;;;;;36.33;20.37;;;2.00;99.90;;;-143.91;100.00;62816.50;4944350;28;100775;-66
2021/01/08 07:55:11;;;;;;;29.40;19.50;;;1.40;99.90;;;-143.91;100.00;62816.50;4944218;28;101682;-66
2021/01/08 07:58:03;;;;;;;28.77;19.30;;;1.30;99.90;;;-143.91;100.00;62816.50;4924848;28;100308;-66
2021/01/08 08:00:32;;;;;;;29.00;20.23;;;1.20;99.90;;;-143.91;100.00;62816.50;4932341;28;100360;-66
2021/01/08 08:03:00;;;;;;;28.67;18.43;;;1.30;99.90;;;-143.91;100.00;62816.50;4943562;28;101520;-66
2021/01/08 08:05:28;;;;;;;26.30;18.07;;;1.20;99.90;;;-143.91;100.00;62816.50;4941814;28;101455;-66
2021/01/08 08:07:57;;;;;;;29.60;19.60;;;1.30;99.90;;;-143.91;100.00;62816.50;4944738;28;100044;-64
2021/01/08 08:10:26;;;;;;;112.57;24.63;;;1.30;99.90;;;-143.91;100.00;62816.50;4944437;28;100164;-66
2021/01/08 08:12:53;;;;;;;147.47;30.10;;;1.10;99.90;;;-143.91;100.00;62816.50;4943545;28;101213;-66
2021/01/08 08:15:21;;;;;;;32.33;19.77;;;1.10;99.90;;;-143.91;100.00;62816.50;4944373;28;100506;-65
2021/01/08 08:17:48;;;;;;;28.97;19.17;;;1.30;99.90;;;-143.91;100.00;62816.50;4943834;28;100622;-67
2021/01/08 08:20:22;;;;;;;33.10;18.60;;;1.10;99.90;;;-143.91;100.00;62816.50;4944265;28;100188;-66
2021/01/08 08:22:52;;;;;;;129.03;28.70;;;1.10;99.90;;;-143.91;100.00;62816.50;4943507;28;101276;-66
2021/01/08 08:25:29;;;;;;;36.40;21.70;;;1.20;99.90;;;-143.91;100.00;62816.50;4943975;28;101042;-66
2021/01/08 08:27:58;;;;;;;31.13;19.27;;;1.20;99.90;;;-143.91;100.00;62816.50;4944541;28;100392;-66
2021/01/08 08:30:26;;;;;;;29.50;19.30;;;1.20;99.90;;;-143.91;100.00;62816.50;4943698;28;100226;-66
2021/01/08 08:32:54;;;;;;;27.90;19.17;;;1.30;99.90;;;-143.91;100.00;62816.50;4941828;28;101692;-66
2021/01/08 08:35:21;;;;;;;55.60;21.30;;;1.50;99.90;;;-143.91;100.00;62816.50;4944336;28;100700;-65
2021/01/08 08:37:53;;;;;;;32.07;20.60;;;1.40;99.90;;;-143.91;100.00;62816.50;4944033;28;100188;-66
2021/01/08 08:40:26;;;;;;;28.67;18.60;;;1.50;99.90;;;-143.91;100.00;62816.50;4941725;28;100439;-65
2021/01/08 08:42:55;;;;;;;28.47;19.00;;;1.50;99.90;;;-143.91;100.00;62816.50;4943379;28;101272;-66
2021/01/08 08:45:26;;;;;;;27.83;18.30;;;3.30;99.90;;;-143.91;100.00;62816.50;4943429;28;100544;-67
2021/01/08 08:47:55;;;;;;;27.97;19.07;;;1.50;99.90;;;-143.91;100.00;62816.50;4943857;28;100392;-66
2021/01/08 08:50:22;;;;;;;44.67;19.93;;;1.70;99.90;;;-143.91;100.00;62816.50;4943242;28;100260;-65
2021/01/08 08:52:49;;;;;;;28.17;17.73;;;1.70;99.90;;;-143.91;100.00;62816.50;4943124;28;101742;-65
2021/01/08 08:55:27;;;;;;;28.80;19.10;;;1.80;99.90;;;-143.91;100.00;62816.50;4942882;28;101012;-65
2021/01/08 08:58:05;;;;;;;29.57;19.23;;;1.90;99.90;;;-143.91;100.00;62816.50;4944279;28;100358;-65
2021/01/08 09:00:33;;;;;;;28.47;19.30;;;1.90;99.90;;;-143.91;100.00;62816.50;4943704;28;100307;-66
2021/01/08 09:03:00;;;;;;;53.20;21.57;;;2.20;99.90;;;-143.91;100.00;62816.50;4939329;28;102024;-65
2021/01/08 09:05:34;;;;;;;30.77;18.73;;;1.90;99.90;;;-143.91;100.00;62816.50;4938775;28;101198;-66
2021/01/08 09:08:10;;;;;;;30.00;19.93;;;2.10;99.90;;;-143.91;100.00;62816.50;4943670;28;100095;-65
2021/01/08 09:10:46;;;;;;;28.63;18.20;;;2.00;99.90;;;-143.91;100.00;62816.50;4943381;28;99944;-64
2021/01/08 09:13:16;;;;;;;31.37;19.23;;;2.30;99.90;;;-143.91;100.00;62816.50;4941570;28;101250;-66
2021/01/08 09:15:51;;;;;;;31.47;21.00;;;2.40;99.90;;;-143.91;100.00;62816.50;4942400;28;100896;-67
2021/01/08 09:18:34;;;;;;;27.77;19.00;;;2.20;99.90;;;-143.91;100.00;62816.50;4945032;28;100350;-66
2021/01/08 09:21:12;;;;;;;27.23;18.53;;;2.30;99.90;;;-143.91;100.00;62816.50;4947996;28;100478;-67
2021/01/08 09:23:43;;;;;;;27.20;18.67;;;2.30;99.90;;;-143.91;100.00;62816.50;4952068;28;100831;-66
2021/01/08 09:26:11;;;;;;;27.37;17.77;;;2.50;99.90;;;-143.91;100.00;62816.50;4953815;28;100580;-64
2021/01/08 09:28:42;;;;;;;29.17;18.97;;;2.40;99.90;;;-143.91;100.00;62816.50;4948881;28;101512;-65
2021/01/08 09:31:09;;;;;;;25.33;18.10;;;2.50;99.90;;;-143.91;100.00;62816.50;4954121;28;100172;-65
2021/01/08 09:33:36;;;;;;;30.93;19.77;;;3.60;99.90;;;-143.91;100.00;62816.50;4941397;28;101553;-65
2021/01/08 09:36:06;;;;;;;26.63;16.83;;;2.40;99.90;;;-143.91;100.00;62816.50;4942251;28;101215;-66
2021/01/08 09:38:33;;;;;;;26.33;18.30;;;2.40;99.90;;;-143.91;100.00;62816.50;4943018;28;100494;-65
2021/01/08 09:41:00;;;;;;;27.43;17.67;;;2.40;99.90;;;-143.91;100.00;62816.50;4942726;28;100288;-65
2021/01/08 09:43:27;;;;;;;23.40;16.60;;;1.80;99.90;;;-143.91;100.00;62816.50;4943183;28;101379;-65
2021/01/08 09:46:05;;;;;;;20.40;16.40;;;3.40;99.90;;;-143.91;100.00;62816.50;4942464;28;100769;-65
2021/01/08 09:48:32;;;;;;;79.53;20.97;;;2.60;99.90;;;-143.91;100.00;62816.50;4922763;28;99795;-64
2021/01/08 09:51:06;;;;;;;25.07;17.80;;;2.60;99.90;;;-143.91;100.00;62816.50;4923401;28;100102;-65
2021/01/08 09:53:34;;;;;;;24.80;17.00;;;2.50;99.90;;;-143.91;100.00;62816.50;4922167;28;102268;-64
2021/01/08 09:56:15;;;;;;;23.40;16.80;;;2.60;99.90;;;-143.91;100.00;62816.50;4922827;28;100630;-65